Time;durP1;ratioP1;P1;durP2;ratioP2;P2;SDS_P1;SDS_P2;PMS_P1;PMS_P2;Temp;Humidity;BMP_temperature;BMP_pressure;BME280_temperature;BME280_humidity;BME280_pressure;Samples;Min_cycle;Max_cycle;Signal;HPM_P1;HPM_P2
2023/10/07 00:00:47;;;;;;;10.60;6.30;;;;;;;25.44;42.11;97212.69;6127383;23;20141;-26
2023/10/07 00:03:14;;;;;;;10.32;6.15;;;;;;;25.40;42.10;97218.50;6127437;23;20006;-27
2023/10/07 00:05:42;;;;;;;10.40;5.22;;;;;;;25.41;41.86;97211.69;6101627;23;20439;-27
2023/10/07 00:08:12;;;;;;;7.88;6.13;;;;;;;25.46;41.91;97203.84;6127208;23;20012;-27
2023/10/07 00:10:38;;;;;;;8.70;6.40;;;;;;;25.47;41.89;97211.66;6127445;23;20008;-27
2023/10/07 00:13:09;;;;;;;8.68;6.30;;;;;;;25.51;41.74;97203.84;6127369;23;20002;-27
2023/10/07 00:15:46;;;;;;;9.00;6.38;;;;;;;25.47;41.57;97199.81;6127287;23;20037;-27
2023/10/07 00:18:13;;;;;;;8.82;6.38;;;;;;;25.60;41.12;97205.56;6127197;23;20408;-27
2023/10/07 00:21:04;;;;;;;8.77;6.00;;;;;;;25.53;41.53;97197.78;6127108;23;20332;-27
2023/10/07 00:23:30;;;;;;;7.20;5.95;;;;;;;25.26;42.06;97197.31;6126133;23;20017;-27
2023/10/07 00:26:00;;;;;;;10.30;6.32;;;;;;;25.48;41.48;97195.75;6127292;23;20324;-27
2023/10/07 00:28:34;;;;;;;10.68;6.57;;;;;;;25.53;41.52;97190.19;6127157;23;20006;-27
2023/10/07 00:31:05;;;;;;;8.85;6.90;;;;;;;25.29;41.53;97190.00;6127412;23;20006;-27
2023/10/07 00:36:33;;;;;;;13.57;6.53;;;;;;;25.28;41.62;97191.25;6131339;23;20026;-27
2023/10/07 00:38:59;;;;;;;12.30;6.75;;;;;;;25.42;41.35;97188.19;6127350;23;20033;-27
2023/10/07 00:41:36;;;;;;;9.27;6.88;;;;;;;25.47;41.34;97183.16;6126950;23;20008;-27
2023/10/07 00:44:17;;;;;;;8.98;6.47;;;;;;;25.45;41.22;97178.09;6127086;23;20412;-27
2023/10/07 00:46:48;;;;;;;8.50;6.47;;;;;;;25.28;41.56;97183.69;6126941;23;20529;-27
2023/10/07 00:49:20;;;;;;;10.38;6.43;;;;;;;25.19;42.05;97169.31;6127485;23;20028;-27
2023/10/07 00:51:47;;;;;;;9.47;7.00;;;;;;;25.15;42.08;97180.66;6126923;23;20021;-27
2023/10/07 00:54:35;;;;;;;10.35;6.38;;;;;;;25.34;41.24;97170.56;6126833;23;20009;-27
2023/10/07 00:57:23;;;;;;;11.13;6.70;;;;;;;25.32;41.52;97166.78;6126648;23;20009;-27
2023/10/07 00:59:55;;;;;;;11.73;7.05;;;;;;;25.38;41.76;97164.72;6126738;23;20686;-27
2023/10/07 01:02:30;;;;;;;9.00;6.40;;;;;;;25.21;41.71;97167.53;6126771;23;20013;-27
2023/10/07 01:05:13;;;;;;;9.32;7.25;;;;;;;25.28;41.60;97166.25;6126886;23;20081;-27
2023/10/07 01:07:41;;;;;;;8.00;6.95;;;;;;;25.13;42.06;97171.31;6126849;23;20009;-27
2023/10/07 01:12:39;;;;;;;8.63;6.82;;;;;;;25.39;41.47;97167.00;6127203;23;20006;-27
2023/10/07 01:15:17;;;;;;;11.00;7.22;;;;;;;25.26;41.83;97161.22;6126614;23;20310;-27
2023/10/07 01:17:47;;;;;;;11.15;6.90;;;;;;;25.15;41.98;97158.44;6127427;23;20080;-27
2023/10/07 01:20:13;;;;;;;9.50;6.80;;;;;;;25.14;41.91;97159.72;6126669;23;20361;-27
2023/10/07 01:22:53;;;;;;;10.63;7.10;;;;;;;25.40;41.20;97162.97;6126719;23;20004;-27
2023/10/07 01:25:20;;;;;;;8.48;6.60;;;;;;;25.10;41.83;97155.69;6126383;23;20081;-27
2023/10/07 01:27:53;;;;;;;10.50;6.85;;;;;;;25.33;41.22;97160.72;6126853;23;20336;-27
2023/10/07 01:30:26;;;;;;;9.63;7.35;;;;;;;25.32;40.94;97161.97;6126454;23;20006;-27
2023/10/07 01:33:01;;;;;;;;;;;;;;;25.05;41.61;97163.50;6126972;23;20033;-27
2023/10/07 01:35:32;;;;;;;8.25;6.68;;;;;;;25.20;41.45;97166.03;6126127;23;20252;-27
2023/10/07 01:38:06;;;;;;;9.35;7.07;;;;;;;25.16;41.76;97159.97;6126562;23;20006;-27
2023/10/07 01:40:43;;;;;;;8.15;6.60;;;;;;;25.25;41.47;97156.91;6126287;23;20002;-27
2023/10/07 01:43:08;;;;;;;9.98;7.13;;;;;;;25.07;41.44;97156.69;6126637;23;20006;-27
2023/10/07 01:45:39;;;;;;;9.52;7.05;;;;;;;25.13;41.09;97155.41;6126247;23;20088;-27
2023/10/07 01:48:07;;;;;;;10.82;7.10;;;;;;;25.02;41.47;97152.66;6126574;23;20006;-27
2023/10/07 01:50:40;;;;;;;10.50;6.55;;;;;;;25.09;41.55;97149.38;6126494;23;20012;-27
2023/10/07 01:53:06;;;;;;;11.57;7.22;;;;;;;25.11;41.40;97152.41;6126205;23;20009;-27
2023/10/07 01:55:43;;;;;;;9.32;7.28;;;;;;;25.08;41.56;97150.66;6126750;23;20006;-27
2023/10/07 01:58:17;;;;;;;11.55;7.80;;;;;;;25.13;41.33;97149.88;6126460;23;20005;-27
2023/10/07 02:03:14;;;;;;;9.00;7.18;;;;;;;25.19;40.90;97141.56;6126689;23;20471;-27
2023/10/07 02:05:41;;;;;;;9.43;7.40;;;;;;;25.05;41.41;97146.88;6126631;23;20006;-27
2023/10/07 02:08:12;;;;;;;9.38;7.95;;;;;;;25.12;41.29;97148.34;6126278;23;20032;-27
2023/10/07 02:10:41;;;;;;;8.80;7.03;;;;;;;25.18;41.19;97151.91;6126800;23;20001;-27
2023/10/07 02:13:14;;;;;;;12.35;7.78;;;;;;;25.11;41.23;97144.06;6126573;23;20077;-27
2023/10/07 02:15:42;;;;;;;10.95;8.13;;;;;;;25.10;41.03;97147.38;6126693;23;20008;-27
2023/10/07 02:18:12;;;;;;;13.20;8.60;;;;;;;25.16;41.01;97140.53;6126249;23;20012;-27
2023/10/07 02:20:38;;;;;;;10.18;7.30;;;;;;;25.01;41.52;97137.28;6126280;23;20049;-27
2023/10/07 02:23:12;;;;;;;11.05;7.68;;;;;;;25.03;41.33;97148.63;6126237;23;20006;-27
2023/10/07 02:25:40;;;;;;;11.15;7.55;;;;;;;25.06;41.19;97150.41;6126044;23;20006;-27
2023/10/07 02:28:07;;;;;;;10.52;7.32;;;;;;;24.94;41.37;97140.56;6126211;23;20006;-27
2023/10/07 02:30:39;;;;;;;9.23;7.63;;;;;;;24.97;41.33;97136.78;6125872;23;20002;-27
2023/10/07 02:33:08;;;;;;;11.23;7.82;;;;;;;24.88;41.68;97137.00;6126251;23;20052;-27
2023/10/07 02:35:36;;;;;;;11.70;7.63;;;;;;;25.01;41.49;97140.81;6125638;23;20068;-27
2023/10/07 02:38:03;;;;;;;9.88;7.55;;;;;;;25.03;41.28;97140.28;6126175;23;20420;-27
2023/10/07 02:40:35;;;;;;;11.88;7.40;;;;;;;25.11;41.10;97137.75;6126218;23;20432;-27
2023/10/07 02:43:07;;;;;;;10.07;7.60;;;;;;;24.94;41.31;97137.78;6125610;23;20006;-27
2023/10/07 02:45:39;;;;;;;10.00;7.80;;;;;;;24.99;41.25;97134.25;6126530;23;20060;-27
2023/10/07 02:48:10;;;;;;;8.73;7.22;;;;;;;24.94;41.28;97126.69;6128236;23;20467;-27
2023/10/07 02:50:42;;;;;;;12.15;8.10;;;;;;;24.89;41.39;97130.19;6128111;23;20315;-27
2023/10/07 02:53:13;;;;;;;12.82;7.95;;;;;;;24.92;41.49;97135.50;6128056;23;20010;-27
2023/10/07 02:55:54;;;;;;;10.25;7.70;;;;;;;24.99;41.09;97137.00;6128329;23;20006;-27
2023/10/07 03:01:13;;;;;;;11.85;8.20;;;;;;;24.88;41.17;97134.97;6094336;23;20006;-27
2023/10/07 03:03:41;;;;;;;11.20;8.15;;;;;;;25.03;40.94;97140.28;6127979;23;20416;-27
2023/10/07 03:06:07;;;;;;;11.65;7.95;;;;;;;24.95;41.12;97142.06;6127718;23;20076;-27
2023/10/07 03:11:11;;;;;;;10.40;7.97;;;;;;;24.98;41.06;97132.72;6132707;23;20006;-27
2023/10/07 03:13:45;;;;;;;12.27;8.15;;;;;;;24.81;41.21;97129.94;6127805;23;20032;-27
2023/10/07 03:18:47;;;;;;;11.27;7.93;;;;;;;24.83;41.65;97135.75;6128991;23;20316;-27
2023/10/07 03:21:15;;;;;;;11.00;8.35;;;;;;;24.85;40.86;97143.56;6127514;23;20431;-27
2023/10/07 03:23:47;;;;;;;11.40;8.52;;;;;;;24.92;40.67;97137.50;6127923;23;20037;-27
2023/10/07 03:26:21;;;;;;;10.43;8.33;;;;;;;24.87;40.96;97133.47;6127763;23;20515;-27
2023/10/07 03:28:56;;;;;;;10.88;8.02;;;;;;;24.86;40.82;97136.75;6127783;23;20074;-27
2023/10/07 03:31:33;;;;;;;12.35;8.07;;;;;;;24.89;41.02;97133.72;6127625;23;20478;-27
2023/10/07 03:33:59;;;;;;;11.10;8.35;;;;;;;24.85;41.01;97141.53;6127771;23;19998;-27
2023/10/07 03:36:40;;;;;;;9.98;7.72;;;;;;;24.80;41.24;97139.53;6127193;23;20068;-27
2023/10/07 03:41:47;;;;;;;10.68;7.45;;;;;;;24.88;41.14;97137.00;6130395;23;20006;-27
2023/10/07 03:44:19;;;;;;;;;;;;;;;24.90;41.07;97137.25;6128348;23;20026;-27
2023/10/07 03:46:54;;;;;;;12.10;8.07;;;;;;;24.79;41.28;97134.47;6127345;23;19909;-27
2023/10/07 03:49:21;;;;;;;10.73;7.95;;;;;;;24.69;41.56;97133.97;6127658;23;20009;-27
2023/10/07 03:51:48;;;;;;;11.90;8.38;;;;;;;24.85;41.47;97129.69;6127357;23;20026;-27
2023/10/07 03:54:24;;;;;;;11.68;8.07;;;;;;;24.93;41.00;97125.19;6101549;23;20428;-27
2023/10/07 03:56:49;;;;;;;11.07;8.15;;;;;;;24.72;41.52;97124.66;6127251;23;20001;-27
2023/10/07 03:59:15;;;;;;;11.15;7.63;;;;;;;24.84;41.47;97120.63;6126954;23;20001;-27
2023/10/07 04:01:44;;;;;;;10.77;7.57;;;;;;;24.84;41.76;97128.94;6127190;23;20010;-27
2023/10/07 04:04:11;;;;;;;12.70;8.05;;;;;;;24.76;41.54;97127.16;6127304;23;20010;-27
2023/10/07 04:06:38;;;;;;;12.30;7.63;;;;;;;24.85;41.41;97124.16;6127432;23;20005;-27
2023/10/07 04:09:08;;;;;;;10.90;8.18;;;;;;;24.82;41.62;97125.16;6127286;23;20005;-27
2023/10/07 04:11:38;;;;;;;11.88;8.35;;;;;;;24.78;41.66;97117.06;6101499;23;20084;-27
2023/10/07 04:16:50;;;;;;;10.98;7.95;;;;;;;24.72;41.90;97127.44;6127296;23;20017;-27
2023/10/07 04:21:45;;;;;;;11.70;8.20;;;;;;;24.67;41.97;97130.94;6127291;23;20013;-27
2023/10/07 04:24:13;;;;;;;10.65;8.38;;;;;;;24.77;42.25;97125.91;6127264;23;20416;-27
2023/10/07 04:26:39;;;;;;;11.05;8.02;;;;;;;25.02;41.29;97133.22;6127194;23;20072;-27
2023/10/07 04:29:14;;;;;;;11.70;7.85;;;;;;;24.76;42.01;97127.16;6127255;23;20010;-27
2023/10/07 04:31:53;;;;;;;10.15;8.05;;;;;;;24.68;42.03;97133.22;6126968;23;20324;-27
2023/10/07 04:34:20;;;;;;;10.55;7.25;;;;;;;24.60;42.26;97115.56;6127289;23;20080;-27
2023/10/07 04:40:27;;;;;;;14.52;8.60;;;;;;;24.70;42.09;97127.94;6132413;23;20013;-27
2023/10/07 04:42:36;;;;;;;11.07;7.82;;;;;;;24.74;42.12;97130.44;6126951;23;20046;-27
2023/10/07 04:45:22;;;;;;;12.30;7.65;;;;;;;24.71;42.14;97128.69;6127165;23;20001;-27
2023/10/07 04:47:57;;;;;;;9.75;7.20;;;;;;;24.81;42.05;97129.19;6126971;23;20010;-27
2023/10/07 04:50:33;;;;;;;11.18;7.57;;;;;;;24.68;42.15;97126.91;6126927;23;20076;-27
2023/10/07 04:53:03;;;;;;;10.02;7.88;;;;;;;24.76;42.18;97127.16;6126812;23;20103;-27
2023/10/07 04:55:29;;;;;;;11.85;7.30;;;;;;;24.79;42.25;97121.38;6126768;23;20487;-27
2023/10/07 05:03:03;;;;;;;10.80;8.48;;;;;;;24.65;42.47;97134.22;6131768;23;20064;-27
2023/10/07 05:05:32;;;;;;;14.02;7.95;;;;;;;24.58;42.19;97128.44;6126835;23;20006;-27
2023/10/07 05:08:22;;;;;;;11.15;8.35;;;;;;;24.55;42.65;97129.44;6126757;23;20012;-27
2023/10/07 05:10:54;;;;;;;13.15;8.27;;;;;;;24.80;42.05;97127.69;6126278;23;20005;-27
2023/10/07 05:13:20;;;;;;;14.15;8.32;;;;;;;24.58;42.43;97131.19;6126594;23;20009;-27
2023/10/07 05:15:46;;;;;;;13.50;8.43;;;;;;;24.66;42.28;97130.19;6126773;23;20033;-27
2023/10/07 05:18:13;;;;;;;11.00;7.97;;;;;;;24.71;42.30;97139.78;6126438;23;20009;-27
2023/10/07 05:20:41;;;;;;;12.25;7.30;;;;;;;24.74;42.12;97135.97;6126492;23;20021;-27
2023/10/07 05:23:07;;;;;;;8.45;6.88;;;;;;;24.73;42.10;97139.28;6126634;23;20010;-27
2023/10/07 05:25:38;;;;;;;16.58;8.07;;;;;;;24.80;42.16;97138.78;6126270;23;20132;-27
2023/10/07 05:28:10;;;;;;;13.52;8.18;;;;;;;24.53;42.64;97134.72;6127241;23;20002;-27
2023/10/07 05:30:44;;;;;;;10.75;7.70;;;;;;;24.62;42.43;97151.09;6126405;23;20022;-27
2023/10/07 05:33:10;;;;;;;11.60;7.53;;;;;;;24.59;42.72;97133.47;6127300;23;20005;-27
2023/10/07 05:35:37;;;;;;;12.27;8.05;;;;;;;24.65;42.39;97141.78;6126007;23;20025;-27
2023/10/07 05:38:09;;;;;;;13.52;8.32;;;;;;;24.62;42.55;97149.09;6126496;23;20428;-27
2023/10/07 05:40:36;;;;;;;10.50;8.05;;;;;;;24.65;42.55;97145.31;6126726;23;20016;-27
2023/10/07 05:43:07;;;;;;;13.30;8.10;;;;;;;24.60;42.46;97145.31;6126386;23;20012;-27
2023/10/07 05:45:34;;;;;;;11.10;8.25;;;;;;;24.63;42.63;97147.06;6126531;23;20013;-27
2023/10/07 05:48:01;;;;;;;12.23;7.30;;;;;;;24.55;42.44;97141.28;6126456;23;20010;-27
2023/10/07 05:50:32;;;;;;;11.63;7.93;;;;;;;24.64;42.50;97148.59;6126407;23;20439;-27
2023/10/07 05:52:59;;;;;;;12.27;7.20;;;;;;;24.61;42.71;97150.34;6126328;23;20003;-27
2023/10/07 05:55:25;;;;;;;11.73;7.82;;;;;;;24.58;42.68;97150.63;6126348;23;20080;-27
2023/10/07 05:57:52;;;;;;;8.88;7.15;;;;;;;24.74;42.49;97154.63;6126280;23;20037;-27
2023/10/07 06:00:18;;;;;;;9.98;7.03;;;;;;;24.68;42.61;97158.19;6126155;23;20006;-27
2023/10/07 06:02:43;;;;;;;9.18;7.50;;;;;;;24.68;42.59;97149.88;6126508;23;20452;-27
2023/10/07 06:05:12;;;;;;;11.10;7.88;;;;;;;24.78;42.25;97152.38;6126009;23;20002;-27
2023/10/07 06:07:41;;;;;;;10.40;7.88;;;;;;;24.63;42.63;97158.94;6126218;23;20002;-27
2023/10/07 06:10:10;;;;;;;11.80;8.02;;;;;;;24.62;42.72;97156.66;6100017;23;20467;-27
2023/10/07 06:12:36;;;;;;;11.18;8.25;;;;;;;24.63;42.64;97170.03;6126295;23;20024;-27
2023/10/07 06:15:02;;;;;;;11.70;6.97;;;;;;;24.79;42.39;97165.00;6126294;23;20444;-27
2023/10/07 06:17:27;;;;;;;9.93;7.35;;;;;;;24.74;42.65;97168.50;6126167;23;20428;-27
2023/10/07 06:19:53;;;;;;;10.13;6.95;;;;;;;24.85;42.02;97163.72;6126089;23;20009;-27
2023/10/07 06:22:22;;;;;;;10.32;7.15;;;;;;;24.78;42.16;97166.25;6125503;23;20052;-27
2023/10/07 06:24:52;;;;;;;12.48;7.65;;;;;;;24.76;42.37;97171.53;6126107;23;20009;-27
2023/10/07 06:27:21;;;;;;;10.75;7.82;;;;;;;24.81;42.19;97168.78;6126082;23;20498;-27
2023/10/07 06:29:48;;;;;;;9.82;6.93;;;;;;;24.80;41.94;97174.84;6126156;23;20421;-27
2023/10/07 06:32:24;;;;;;;11.82;7.03;;;;;;;24.83;41.95;97176.59;6126143;23;19998;-27
2023/10/07 06:34:55;;;;;;;9.75;6.60;;;;;;;24.91;41.67;97183.91;6126182;23;20002;-27
2023/10/07 06:37:30;;;;;;;10.30;7.25;;;;;;;24.83;42.10;97187.72;6126006;23;20018;-27
2023/10/07 06:40:00;;;;;;;9.13;6.57;;;;;;;24.98;41.79;97182.66;6126024;23;20086;-27
2023/10/07 06:42:26;;;;;;;9.57;7.28;;;;;;;24.93;42.01;97192.53;6126452;23;20073;-27
2023/10/07 06:44:56;;;;;;;9.80;6.88;;;;;;;25.01;41.59;97192.78;6125975;23;20508;-27
2023/10/07 06:47:24;;;;;;;11.48;7.10;;;;;;;24.98;41.71;97188.22;6126091;23;20009;-27
2023/10/07 06:49:52;;;;;;;10.57;6.63;;;;;;;24.90;42.00;97196.28;6126026;23;20002;-27
2023/10/07 06:52:20;;;;;;;11.65;6.93;;;;;;;24.99;42.09;97196.03;6126127;23;19998;-27
2023/10/07 06:54:47;;;;;;;8.38;6.68;;;;;;;24.97;42.28;97193.00;6125782;23;20009;-27
2023/10/07 06:57:13;;;;;;;8.20;6.47;;;;;;;24.94;42.14;97199.59;6126015;23;20006;-27
2023/10/07 06:59:45;;;;;;;10.55;6.90;;;;;;;24.82;42.54;97197.28;6125933;23;20012;-27
2023/10/07 07:02:17;;;;;;;9.63;6.77;;;;;;;25.05;42.14;97199.59;6125702;23;20006;-27
2023/10/07 07:04:43;;;;;;;13.10;7.07;;;;;;;24.98;42.23;97202.09;6126044;23;20005;-27
2023/10/07 07:07:12;;;;;;;8.75;6.72;;;;;;;25.02;42.40;97208.16;6125925;23;20380;-27
2023/10/07 07:12:21;;;;;;;11.63;7.40;;;;;;;25.02;42.33;97206.16;6126484;23;20013;-27
2023/10/07 07:14:51;;;;;;;9.57;7.03;;;;;;;24.94;42.73;97209.94;6126122;23;20006;-27
2023/10/07 07:20:29;;;;;;;9.35;6.30;;;;;;;25.10;42.40;97214.72;6077983;23;20088;-27
2023/10/07 07:22:58;;;;;;;12.73;6.72;;;;;;;25.11;42.41;97221.78;6125865;23;20336;-27
2023/10/07 07:25:35;;;;;;;8.95;6.68;;;;;;;25.09;42.83;97224.31;6125694;23;20006;-27
2023/10/07 07:28:03;;;;;;;9.48;6.82;;;;;;;25.14;42.76;97223.56;6126009;23;20009;-27
2023/10/07 07:30:32;;;;;;;12.38;7.38;;;;;;;25.14;43.12;97229.09;6125466;23;20416;-27
2023/10/07 07:33:08;;;;;;;12.02;6.78;;;;;;;25.20;43.02;97232.66;6126685;23;20002;-27
2023/10/07 07:35:41;;;;;;;10.18;7.20;;;;;;;25.14;43.32;97231.13;6127337;23;20085;-27
2023/10/07 07:38:15;;;;;;;11.98;6.85;;;;;;;25.18;43.38;97234.41;6127658;23;19998;-27
2023/10/07 07:40:43;;;;;;;10.57;7.05;;;;;;;25.26;43.06;97236.16;6127497;23;20557;-27
2023/10/07 07:43:09;;;;;;;12.88;7.32;;;;;;;25.16;43.20;97236.94;6127623;23;20492;-27
2023/10/07 07:45:35;;;;;;;9.48;6.57;;;;;;;25.17;43.37;97241.22;6127393;23;20034;-27
2023/10/07 07:48:06;;;;;;;10.20;6.93;;;;;;;25.15;43.32;97246.50;6127526;23;20013;-27
2023/10/07 07:50:35;;;;;;;9.73;5.85;;;;;;;25.03;43.39;97243.75;6127651;23;20452;-27
2023/10/07 07:53:06;;;;;;;9.90;6.72;;;;;;;25.18;42.71;97245.50;6127550;23;20006;-27
2023/10/07 07:55:37;;;;;;;12.32;7.13;;;;;;;25.06;42.95;97250.31;6127610;23;20455;-27
2023/10/07 07:58:04;;;;;;;8.95;6.70;;;;;;;25.24;42.57;97252.56;6127633;23;20014;-27
2023/10/07 08:00:31;;;;;;;9.90;6.88;;;;;;;25.26;42.47;97255.59;6127424;23;20053;-27
2023/10/07 08:03:00;;;;;;;9.52;6.90;;;;;;;25.16;42.53;97248.03;6127048;23;20017;-27
2023/10/07 08:05:33;;;;;;;9.65;6.43;;;;;;;25.23;42.56;97253.06;6127214;23;20009;-27
2023/10/07 08:07:59;;;;;;;10.90;6.20;;;;;;;25.16;42.05;97253.59;6127354;23;20089;-27
2023/10/07 08:10:26;;;;;;;10.02;6.57;;;;;;;25.18;42.59;97253.84;6127225;23;20038;-27
2023/10/07 08:12:52;;;;;;;9.05;6.22;;;;;;;25.14;42.17;97254.09;6127292;23;20336;-27
2023/10/07 08:15:23;;;;;;;9.80;6.78;;;;;;;25.09;42.23;97251.31;6127219;23;20013;-27
2023/10/07 08:17:56;;;;;;;10.38;6.32;;;;;;;25.33;41.54;97255.13;6127291;23;20445;-27
2023/10/07 08:20:33;;;;;;;;;;;;;;;25.32;41.78;97259.16;6127505;23;20009;-27
2023/10/07 08:23:06;;;;;;;9.15;5.93;;;;;;;25.31;41.53;97260.41;6127436;23;19916;-27
2023/10/07 08:25:45;;;;;;;7.97;6.15;;;;;;;25.44;41.73;97264.69;6126935;23;20006;-27
2023/10/07 08:28:37;;;;;;;9.60;5.38;;;;;;;25.58;42.16;97260.91;6127167;23;20077;-27
2023/10/07 08:31:13;;;;;;;9.02;5.57;;;;;;;25.47;41.77;97256.09;6127414;23;20057;-27
2023/10/07 08:33:38;;;;;;;8.55;5.95;;;;;;;25.62;42.16;97261.41;6126807;23;20006;-27
2023/10/07 08:36:07;;;;;;;7.07;5.88;;;;;;;25.61;42.01;97271.00;6127151;23;20389;-27
2023/10/07 08:38:43;;;;;;;9.50;5.93;;;;;;;25.69;42.13;97272.03;6126696;23;20081;-27
2023/10/07 08:41:18;;;;;;;11.18;6.45;;;;;;;25.62;42.79;97266.97;6127146;23;20002;-27
2023/10/07 08:43:45;;;;;;;11.05;7.25;;;;;;;25.49;43.34;97270.22;6126678;23;20006;-27
2023/10/07 08:46:19;;;;;;;11.73;7.15;;;;;;;25.65;43.30;97275.06;6127069;23;20009;-27
2023/10/07 08:48:58;;;;;;;9.30;6.85;;;;;;;25.78;42.91;97274.53;6126868;23;20075;-27
2023/10/07 08:51:24;;;;;;;12.48;6.57;;;;;;;25.44;43.98;97281.34;6127238;23;20006;-27
2023/10/07 08:54:05;;;;;;;13.63;6.88;;;;;;;25.67;43.78;97274.53;6126599;23;20447;-27
2023/10/07 08:56:36;;;;;;;9.15;6.45;;;;;;;25.89;43.28;97274.50;6127045;23;20324;-27
2023/10/07 08:59:06;;;;;;;9.13;6.72;;;;;;;25.76;43.81;97282.59;6126946;23;20025;-27
2023/10/07 09:01:34;;;;;;;11.13;6.15;;;;;;;25.93;42.68;97277.78;6126761;23;20483;-27
2023/10/07 09:04:02;;;;;;;8.30;6.18;;;;;;;25.94;42.78;97279.31;6126456;23;20389;-27
2023/10/07 09:06:33;;;;;;;8.95;6.88;;;;;;;25.99;43.23;97272.94;6127189;23;20009;-27
2023/10/07 09:09:09;;;;;;;13.80;6.20;;;;;;;26.02;43.34;97276.75;6126797;23;20029;-27
2023/10/07 09:11:38;;;;;;;7.53;5.78;;;;;;;25.90;43.11;97278.78;6126927;23;20009;-27
2023/10/07 09:14:07;;;;;;;11.57;6.20;;;;;;;26.10;43.06;97277.72;6126501;23;20454;-27
2023/10/07 09:16:34;;;;;;;10.60;6.22;;;;;;;25.87;43.36;97271.47;6127012;23;20121;-27
2023/10/07 09:19:03;;;;;;;9.77;6.30;;;;;;;26.11;42.81;97276.47;6126845;23;20009;-27
2023/10/07 09:21:33;;;;;;;13.73;6.45;;;;;;;25.99;43.37;97281.28;6126487;23;20941;-27
2023/10/07 09:24:03;;;;;;;9.43;6.55;;;;;;;26.05;42.99;97282.06;6126702;23;20002;-27
2023/10/07 09:26:36;;;;;;;9.70;7.03;;;;;;;26.09;42.67;97282.53;6126734;23;20002;-27
2023/10/07 09:29:14;;;;;;;10.45;6.75;;;;;;;26.21;42.30;97286.03;6126727;23;20006;-27
2023/10/07 09:31:44;;;;;;;9.05;5.78;;;;;;;26.24;43.16;97276.66;6126282;23;20010;-27
2023/10/07 09:34:10;;;;;;;11.60;6.40;;;;;;;26.26;42.82;97276.16;6126587;23;20093;-27
2023/10/07 09:36:46;;;;;;;9.48;6.22;;;;;;;26.07;42.62;97278.75;6126005;23;20018;-27
2023/10/07 09:41:39;;;;;;;9.50;6.20;;;;;;;26.12;42.60;97270.38;6126491;23;20052;-27
2023/10/07 09:44:21;;;;;;;9.55;6.90;;;;;;;26.10;42.91;97272.91;6126365;23;20002;-27
2023/10/07 09:46:52;;;;;;;9.93;6.43;;;;;;;26.35;42.29;97270.34;6126106;23;20094;-27
2023/10/07 09:49:22;;;;;;;10.73;6.88;;;;;;;26.39;42.75;97277.16;6100451;23;20228;-27
2023/10/07 09:52:02;;;;;;;8.68;5.95;;;;;;;26.32;42.62;97279.72;6126184;23;20357;-27
2023/10/07 09:55:18;;;;;;;9.30;6.47;;;;;;;26.23;43.06;97277.94;6126524;23;20013;-27
2023/10/07 09:57:55;;;;;;;10.27;6.70;;;;;;;26.16;43.11;97275.69;6126085;23;20029;-27
2023/10/07 10:00:38;;;;;;;22.65;6.80;;;;;;;26.25;42.75;97277.44;6126326;23;20009;-27
2023/10/07 10:03:28;;;;;;;8.32;6.35;;;;;;;26.35;42.46;97284.25;6126220;23;20013;-27
2023/10/07 10:06:33;;;;;;;8.95;6.35;;;;;;;26.29;42.30;97273.16;6124606;23;20115;-27
2023/10/07 10:09:08;;;;;;;8.10;6.50;;;;;;;26.28;42.72;97277.19;6126029;23;20006;-27
2023/10/07 10:14:56;;;;;;;8.65;5.95;;;;;;;26.44;42.64;97276.38;6126242;23;20017;-27
2023/10/07 10:16:59;;;;;;;11.20;6.22;;;;;;;26.22;42.98;97272.88;6123368;23;20029;-27
2023/10/07 10:19:44;;;;;;;9.00;6.97;;;;;;;26.42;42.37;97264.25;6125981;23;20009;-27
2023/10/07 10:22:11;;;;;;;9.65;6.28;;;;;;;26.59;41.89;97269.72;6126248;23;20006;-27
2023/10/07 10:24:42;;;;;;;8.10;6.18;;;;;;;26.35;42.54;97259.22;6126203;23;20009;-27
2023/10/07 10:27:12;;;;;;;11.07;6.65;;;;;;;26.30;42.65;97260.00;6126033;23;20404;-27
2023/10/07 10:29:52;;;;;;;7.85;6.57;;;;;;;26.40;41.78;97256.41;6125988;23;20420;-27
2023/10/07 10:32:30;;;;;;;8.85;6.22;;;;;;;26.36;42.19;97255.16;6126046;23;20005;-27
2023/10/07 10:35:00;;;;;;;11.75;6.40;;;;;;;26.49;42.09;97252.56;6126319;23;20001;-27
2023/10/07 10:37:30;;;;;;;9.73;6.53;;;;;;;26.47;41.72;97246.75;6125833;23;20388;-27
2023/10/07 10:40:05;;;;;;;7.88;6.15;;;;;;;26.58;41.20;97257.09;6126427;23;20006;-27
2023/10/07 10:42:40;;;;;;;10.05;6.32;;;;;;;26.48;41.01;97248.28;6125825;23;20009;-27
2023/10/07 10:45:10;;;;;;;8.40;5.88;;;;;;;26.52;41.24;97240.44;6125969;23;20009;-27
2023/10/07 10:47:39;;;;;;;9.68;6.15;;;;;;;26.45;40.75;97246.53;6100115;23;20350;-27
2023/10/07 10:50:07;;;;;;;7.32;6.32;;;;;;;26.50;40.28;97239.44;6126207;23;20388;-27
2023/10/07 10:52:33;;;;;;;6.70;5.95;;;;;;;26.50;39.93;97231.06;6126078;23;20005;-27
2023/10/07 10:55:00;;;;;;;6.30;5.05;;;;;;;26.56;39.64;97232.56;6125973;23;20010;-27
2023/10/07 10:57:25;;;;;;;8.10;5.60;;;;;;;26.42;39.38;97222.53;6126000;23;20317;-27
2023/10/07 10:59:51;;;;;;;8.23;6.15;;;;;;;26.46;39.75;97223.00;6125826;23;20081;-27
2023/10/07 11:02:20;;;;;;;8.52;5.68;;;;;;;26.61;39.38;97226.22;6125887;23;20014;-27
2023/10/07 11:04:55;;;;;;;8.93;6.07;;;;;;;26.50;39.65;97223.50;6126110;23;20005;-27
2023/10/07 11:07:24;;;;;;;9.23;5.72;;;;;;;26.51;39.77;97219.44;6126318;23;20026;-27
2023/10/07 11:09:51;;;;;;;7.53;5.60;;;;;;;26.42;39.52;97220.50;6128088;23;20002;-27
2023/10/07 11:12:17;;;;;;;7.53;5.78;;;;;;;26.52;39.67;97218.16;6127778;23;20332;-27
2023/10/07 11:14:47;;;;;;;9.23;5.43;;;;;;;26.56;39.72;97217.91;6127729;23;20028;-27
2023/10/07 11:17:15;;;;;;;7.78;6.32;;;;;;;26.44;39.10;97217.22;6127933;23;20385;-27
2023/10/07 11:19:51;;;;;;;6.80;5.93;;;;;;;26.58;39.31;97209.81;6127822;23;20006;-27
2023/10/07 11:22:21;;;;;;;7.45;6.05;;;;;;;26.58;38.89;97204.97;6127389;23;20384;-27
2023/10/07 11:24:50;;;;;;;10.07;5.43;;;;;;;26.55;39.40;97206.03;6127784;23;20002;-27
2023/10/07 11:27:17;;;;;;;7.20;5.50;;;;;;;26.54;39.20;97201.72;6127496;23;20073;-27
2023/10/07 11:29:43;;;;;;;7.47;5.43;;;;;;;26.51;38.92;97194.41;6127924;23;20010;-27
2023/10/07 11:32:09;;;;;;;8.93;5.65;;;;;;;26.51;38.94;97194.41;6127800;23;20010;-27
2023/10/07 11:34:38;;;;;;;10.45;5.70;;;;;;;26.47;38.74;97194.66;6127412;23;20041;-27
2023/10/07 11:37:09;;;;;;;7.32;5.70;;;;;;;26.48;38.79;97190.63;6127410;23;20024;-27
2023/10/07 11:39:43;;;;;;;8.25;6.05;;;;;;;26.62;38.62;97188.78;6127556;23;20077;-27
2023/10/07 11:42:11;;;;;;;10.32;5.68;;;;;;;26.61;38.83;97175.38;6127384;23;20417;-27
2023/10/07 11:44:38;;;;;;;7.57;5.75;;;;;;;26.55;38.34;97181.00;6127451;23;20012;-27
2023/10/07 11:47:04;;;;;;;10.38;5.30;;;;;;;26.68;37.62;97181.16;6127512;23;20455;-27
2023/10/07 11:49:31;;;;;;;7.32;5.57;;;;;;;26.47;38.61;97177.22;6127702;23;20071;-27
2023/10/07 11:51:57;;;;;;;7.25;5.60;;;;;;;26.54;37.94;97176.69;6127212;23;20417;-27
2023/10/07 11:54:24;;;;;;;9.43;5.80;;;;;;;26.71;37.98;97173.78;6127669;23;19998;-27
2023/10/07 11:56:50;;;;;;;8.27;5.55;;;;;;;26.51;38.02;97161.03;6101239;23;20012;-27
2023/10/07 11:59:15;;;;;;;7.45;5.78;;;;;;;26.78;38.10;97165.66;6127529;23;20005;-27
2023/10/07 12:01:41;;;;;;;8.93;5.70;;;;;;;26.52;38.34;97156.97;6127399;23;20052;-27
2023/10/07 12:04:08;;;;;;;11.75;6.55;;;;;;;26.51;37.49;97161.03;6101325;23;20009;-27
2023/10/07 12:06:33;;;;;;;13.68;7.13;;;;;;;26.61;37.45;97159.44;6127408;23;20455;-27
2023/10/07 12:09:06;;;;;;;8.75;6.45;;;;;;;26.60;36.85;97157.94;6127073;23;20006;-27
2023/10/07 12:11:32;;;;;;;7.18;5.80;;;;;;;26.56;37.03;97163.03;6127496;23;20017;-27
2023/10/07 12:13:57;;;;;;;8.55;6.45;;;;;;;26.58;37.47;97160.47;6127191;23;20005;-27
2023/10/07 12:16:23;;;;;;;8.15;5.70;;;;;;;26.53;37.82;97158.50;6127047;23;20041;-27
2023/10/07 12:18:48;;;;;;;10.50;6.35;;;;;;;26.55;37.50;97161.50;6126868;23;20006;-27
2023/10/07 12:21:14;;;;;;;10.50;6.50;;;;;;;26.59;37.16;97166.78;6127036;23;20002;-27
2023/10/07 12:23:44;;;;;;;9.05;6.65;;;;;;;26.70;37.70;97164.72;6127026;23;20013;-27
2023/10/07 12:26:13;;;;;;;9.48;7.07;;;;;;;26.75;36.66;97157.56;6127360;23;20002;-27
2023/10/07 12:28:39;;;;;;;9.18;6.32;;;;;;;26.65;37.15;97159.94;6101061;23;20341;-27